sensor_id;sensor_type;location;lat;lon;timestamp;pressure;altitude;pressure_sealevel;temperature;humidity
36378;BME280;22402;42.746;23.606;2023-01-31T00:00:00;92953.22;;;-1.16;94.69
36378;BME280;22402;42.746;23.606;2023-01-31T00:02:25;92955.66;;;-1.14;94.58
36378;BME280;22402;42.746;23.606;2023-01-31T00:04:51;92958.31;;;-1.16;94.61
36378;BME280;22402;42.746;23.606;2023-01-31T00:07:16;92950.66;;;-1.16;94.59
36378;BME280;22402;42.746;23.606;2023-01-31T00:09:41;92948.09;;;-1.16;94.70
36378;BME280;22402;42.746;23.606;2023-01-31T00:12:07;92949.72;;;-1.15;95.09
36378;BME280;22402;42.746;23.606;2023-01-31T00:14:32;92950.56;;;-1.14;95.25
36378;BME280;22402;42.746;23.606;2023-01-31T00:16:57;92946.19;;;-1.12;94.86
36378;BME280;22402;42.746;23.606;2023-01-31T00:19:22;92949.56;;;-1.11;95.01
36378;BME280;22402;42.746;23.606;2023-01-31T00:21:48;92946.19;;;-1.12;95.13
36378;BME280;22402;42.746;23.606;2023-01-31T00:24:13;92952.84;;;-1.09;94.92
36378;BME280;22402;42.746;23.606;2023-01-31T00:26:39;92951.13;;;-1.09;95.30
36378;BME280;22402;42.746;23.606;2023-01-31T00:29:05;92944.19;;;-1.07;94.95
36378;BME280;22402;42.746;23.606;2023-01-31T00:31:32;92943.34;;;-1.07;94.86
36378;BME280;22402;42.746;23.606;2023-01-31T00:33:58;92939.88;;;-1.06;95.10
36378;BME280;22402;42.746;23.606;2023-01-31T00:36:26;92933.84;;;-1.05;94.72
36378;BME280;22402;42.746;23.606;2023-01-31T00:38:54;92929.56;;;-1.05;93.99
36378;BME280;22402;42.746;23.606;2023-01-31T00:41:21;92932.94;;;-1.04;94.01
36378;BME280;22402;42.746;23.606;2023-01-31T00:43:46;92936.34;;;-1.04;94.13
36378;BME280;22402;42.746;23.606;2023-01-31T00:46:12;92935.41;;;-1.03;93.63
36378;BME280;22402;42.746;23.606;2023-01-31T00:48:37;92937.06;;;-1.02;93.81
36378;BME280;22402;42.746;23.606;2023-01-31T00:51:03;92929.38;;;-1.02;94.06
36378;BME280;22402;42.746;23.606;2023-01-31T00:53:28;92933.50;;;-0.99;93.47
36378;BME280;22402;42.746;23.606;2023-01-31T00:56:00;92931.75;;;-0.99;93.77
36378;BME280;22402;42.746;23.606;2023-01-31T00:58:26;92924.94;;;-0.98;94.01
36378;BME280;22402;42.746;23.606;2023-01-31T01:00:52;92924.94;;;-0.98;93.55
36378;BME280;22402;42.746;23.606;2023-01-31T01:03:17;92920.53;;;-0.96;93.74
36378;BME280;22402;42.746;23.606;2023-01-31T01:05:43;92922.19;;;-0.95;93.72
36378;BME280;22402;42.746;23.606;2023-01-31T01:08:08;92927.19;;;-0.94;94.16
36378;BME280;22402;42.746;23.606;2023-01-31T01:10:33;92917.72;;;-0.92;93.61
36378;BME280;22402;42.746;23.606;2023-01-31T01:13:01;92921.81;;;-0.89;93.28
36378;BME280;22402;42.746;23.606;2023-01-31T01:15:26;92919.28;;;-0.89;93.66
36378;BME280;22402;42.746;23.606;2023-01-31T01:17:51;92918.25;;;-0.86;93.03
36378;BME280;22402;42.746;23.606;2023-01-31T01:20:17;92917.34;;;-0.85;92.97
36378;BME280;22402;42.746;23.606;2023-01-31T01:22:42;92920.63;;;-0.83;92.94
36378;BME280;22402;42.746;23.606;2023-01-31T01:25:08;92928.16;;;-0.80;93.01
36378;BME280;22402;42.746;23.606;2023-01-31T01:27:34;92927.13;;;-0.78;92.97
36378;BME280;22402;42.746;23.606;2023-01-31T01:29:59;92922.00;;;-0.78;93.18
36378;BME280;22402;42.746;23.606;2023-01-31T01:32:24;92926.94;;;-0.75;92.94
36378;BME280;22402;42.746;23.606;2023-01-31T01:34:50;92932.91;;;-0.74;92.71
36378;BME280;22402;42.746;23.606;2023-01-31T01:37:15;92924.31;;;-0.73;92.79
36378;BME280;22402;42.746;23.606;2023-01-31T01:39:40;92921.63;;;-0.72;92.35
36378;BME280;22402;42.746;23.606;2023-01-31T01:42:11;92924.13;;;-0.70;91.62
36378;BME280;22402;42.746;23.606;2023-01-31T01:44:55;92916.34;;;-0.69;91.77
36378;BME280;22402;42.746;23.606;2023-01-31T01:47:41;92907.75;;;-0.67;91.00
36378;BME280;22402;42.746;23.606;2023-01-31T01:50:38;92908.50;;;-0.65;90.78
36378;BME280;22402;42.746;23.606;2023-01-31T01:53:09;92911.88;;;-0.65;90.59
36378;BME280;22402;42.746;23.606;2023-01-31T01:58:15;92904.19;;;-0.65;90.67
36378;BME280;22402;42.746;23.606;2023-01-31T02:00:43;92913.50;;;-0.64;90.85
36378;BME280;22402;42.746;23.606;2023-01-31T02:03:09;92921.94;;;-0.62;90.64
36378;BME280;22402;42.746;23.606;2023-01-31T02:05:46;92924.56;;;-0.63;90.69
36378;BME280;22402;42.746;23.606;2023-01-31T02:08:16;92927.94;;;-0.63;91.10
36378;BME280;22402;42.746;23.606;2023-01-31T02:10:51;92915.25;;;-0.64;91.11
36378;BME280;22402;42.746;23.606;2023-01-31T02:13:19;92903.47;;;-0.67;91.08
36378;BME280;22402;42.746;23.606;2023-01-31T02:15:46;92900.16;;;-0.69;91.04
36378;BME280;22402;42.746;23.606;2023-01-31T02:18:12;92900.34;;;-0.72;90.79
36378;BME280;22402;42.746;23.606;2023-01-31T02:28:51;92921.66;;;-0.86;90.56
36378;BME280;22402;42.746;23.606;2023-01-31T02:34:01;92910.09;;;-0.93;90.63
36378;BME280;22402;42.746;23.606;2023-01-31T02:36:47;92917.25;;;-0.98;90.43
36378;BME280;22402;42.746;23.606;2023-01-31T02:39:50;92927.81;;;-1.04;90.71
36378;BME280;22402;42.746;23.606;2023-01-31T02:44:53;92925.72;;;-1.12;91.00
36378;BME280;22402;42.746;23.606;2023-01-31T02:47:34;92928.53;;;-1.17;91.18
36378;BME280;22402;42.746;23.606;2023-01-31T02:50:17;92931.19;;;-1.18;91.13
36378;BME280;22402;42.746;23.606;2023-01-31T02:55:37;92935.66;;;-1.22;91.36
36378;BME280;22402;42.746;23.606;2023-01-31T02:58:07;92940.09;;;-1.25;91.42
36378;BME280;22402;42.746;23.606;2023-01-31T03:00:36;92954.63;;;-1.26;91.47
36378;BME280;22402;42.746;23.606;2023-01-31T03:03:05;92965.78;;;-1.27;91.51
36378;BME280;22402;42.746;23.606;2023-01-31T03:05:32;92963.28;;;-1.28;91.53
36378;BME280;22402;42.746;23.606;2023-01-31T03:07:59;92959.91;;;-1.29;91.62
36378;BME280;22402;42.746;23.606;2023-01-31T03:10:39;92965.94;;;-1.30;91.66
36378;BME280;22402;42.746;23.606;2023-01-31T03:13:24;92966.88;;;-1.31;90.97
36378;BME280;22402;42.746;23.606;2023-01-31T03:16:10;92972.88;;;-1.32;91.05
36378;BME280;22402;42.746;23.606;2023-01-31T03:21:54;92978.00;;;-1.32;91.12
36378;BME280;22402;42.746;23.606;2023-01-31T03:24:23;92993.34;;;-1.32;91.40
36378;BME280;22402;42.746;23.606;2023-01-31T03:26:54;92996.81;;;-1.33;90.93
36378;BME280;22402;42.746;23.606;2023-01-31T03:29:22;93006.13;;;-1.32;90.95
36378;BME280;22402;42.746;23.606;2023-01-31T03:32:01;93010.41;;;-1.32;90.45
36378;BME280;22402;42.746;23.606;2023-01-31T03:34:27;93019.00;;;-1.33;90.37
36378;BME280;22402;42.746;23.606;2023-01-31T03:37:07;93002.75;;;-1.32;90.67
36378;BME280;22402;42.746;23.606;2023-01-31T03:42:13;93000.25;;;-1.34;90.27
36378;BME280;22402;42.746;23.606;2023-01-31T03:45:17;93002.81;;;-1.34;90.13
36378;BME280;22402;42.746;23.606;2023-01-31T03:47:46;92999.44;;;-1.34;90.45
36378;BME280;22402;42.746;23.606;2023-01-31T03:50:27;92990.19;;;-1.37;90.10
36378;BME280;22402;42.746;23.606;2023-01-31T03:53:05;92990.19;;;-1.37;90.27
36378;BME280;22402;42.746;23.606;2023-01-31T03:55:51;93007.56;;;-1.42;89.67
36378;BME280;22402;42.746;23.606;2023-01-31T03:58:20;93021.31;;;-1.45;90.01
36378;BME280;22402;42.746;23.606;2023-01-31T04:00:47;93030.81;;;-1.47;89.40
36378;BME280;22402;42.746;23.606;2023-01-31T04:03:19;93034.34;;;-1.49;89.68
36378;BME280;22402;42.746;23.606;2023-01-31T04:05:48;93029.34;;;-1.51;89.26
36378;BME280;22402;42.746;23.606;2023-01-31T04:08:14;93037.81;;;-1.50;89.57
36378;BME280;22402;42.746;23.606;2023-01-31T04:10:40;93035.44;;;-1.53;89.63
36378;BME280;22402;42.746;23.606;2023-01-31T04:13:05;93036.34;;;-1.54;89.75
36378;BME280;22402;42.746;23.606;2023-01-31T04:15:31;93034.63;;;-1.54;90.32
36378;BME280;22402;42.746;23.606;2023-01-31T04:17:57;93025.22;;;-1.53;90.38
36378;BME280;22402;42.746;23.606;2023-01-31T04:20:22;93026.03;;;-1.53;90.39
36378;BME280;22402;42.746;23.606;2023-01-31T04:22:47;93033.78;;;-1.54;91.05
36378;BME280;22402;42.746;23.606;2023-01-31T04:25:13;93033.69;;;-1.53;90.48
36378;BME280;22402;42.746;23.606;2023-01-31T04:27:38;93043.09;;;-1.53;90.96
36378;BME280;22402;42.746;23.606;2023-01-31T04:30:05;93043.00;;;-1.52;91.28
36378;BME280;22402;42.746;23.606;2023-01-31T04:32:30;93042.19;;;-1.52;91.23
36378;BME280;22402;42.746;23.606;2023-01-31T04:34:55;93046.41;;;-1.51;91.37
36378;BME280;22402;42.746;23.606;2023-01-31T04:37:21;93049.78;;;-1.51;91.36
36378;BME280;22402;42.746;23.606;2023-01-31T04:39:46;93064.22;;;-1.50;91.69
36378;BME280;22402;42.746;23.606;2023-01-31T04:42:11;93069.25;;;-1.48;92.51
36378;BME280;22402;42.746;23.606;2023-01-31T04:44:37;93069.97;;;-1.46;92.29
36378;BME280;22402;42.746;23.606;2023-01-31T04:47:02;93075.84;;;-1.44;92.98
36378;BME280;22402;42.746;23.606;2023-01-31T04:49:27;93077.47;;;-1.43;92.97
36378;BME280;22402;42.746;23.606;2023-01-31T04:51:53;93079.97;;;-1.42;93.66
36378;BME280;22402;42.746;23.606;2023-01-31T04:54:18;93072.19;;;-1.40;93.58
36378;BME280;22402;42.746;23.606;2023-01-31T04:56:43;93080.63;;;-1.38;93.51
36378;BME280;22402;42.746;23.606;2023-01-31T04:59:09;93070.41;;;-1.38;93.07
36378;BME280;22402;42.746;23.606;2023-01-31T05:01:34;93070.22;;;-1.35;93.80
36378;BME280;22402;42.746;23.606;2023-01-31T05:03:59;93076.16;;;-1.34;93.68
36378;BME280;22402;42.746;23.606;2023-01-31T05:06:25;93075.34;;;-1.35;94.09
36378;BME280;22402;42.746;23.606;2023-01-31T05:08:50;93087.16;;;-1.32;94.06
36378;BME280;22402;42.746;23.606;2023-01-31T05:11:15;93078.66;;;-1.33;94.01
36378;BME280;22402;42.746;23.606;2023-01-31T05:13:40;93076.09;;;-1.33;94.14
36378;BME280;22402;42.746;23.606;2023-01-31T05:16:07;93082.09;;;-1.34;94.02
36378;BME280;22402;42.746;23.606;2023-01-31T05:18:33;93087.22;;;-1.34;94.03
36378;BME280;22402;42.746;23.606;2023-01-31T05:20:58;93088.88;;;-1.33;93.82
36378;BME280;22402;42.746;23.606;2023-01-31T05:23:24;93088.94;;;-1.34;94.29
36378;BME280;22402;42.746;23.606;2023-01-31T05:25:49;93095.81;;;-1.35;94.37
36378;BME280;22402;42.746;23.606;2023-01-31T05:28:14;93090.69;;;-1.35;94.50
36378;BME280;22402;42.746;23.606;2023-01-31T05:30:40;93092.34;;;-1.34;94.75
36378;BME280;22402;42.746;23.606;2023-01-31T05:33:05;93106.03;;;-1.35;94.95
36378;BME280;22402;42.746;23.606;2023-01-31T05:35:30;93100.91;;;-1.35;95.47
36378;BME280;22402;42.746;23.606;2023-01-31T05:37:56;93102.56;;;-1.34;95.64
36378;BME280;22402;42.746;23.606;2023-01-31T05:40:21;93100.00;;;-1.34;95.32
36378;BME280;22402;42.746;23.606;2023-01-31T05:42:57;93106.03;;;-1.35;95.80
36378;BME280;22402;42.746;23.606;2023-01-31T05:45:23;93106.84;;;-1.34;95.73
36378;BME280;22402;42.746;23.606;2023-01-31T05:47:48;93104.31;;;-1.34;96.12
36378;BME280;22402;42.746;23.606;2023-01-31T05:50:15;93097.44;;;-1.34;95.95
36378;BME280;22402;42.746;23.606;2023-01-31T05:52:40;93099.13;;;-1.33;96.59
36378;BME280;22402;42.746;23.606;2023-01-31T05:55:06;93105.06;;;-1.32;96.53
36378;BME280;22402;42.746;23.606;2023-01-31T05:57:31;93109.34;;;-1.33;96.51
36378;BME280;22402;42.746;23.606;2023-01-31T05:59:57;93105.06;;;-1.32;96.66
36378;BME280;22402;42.746;23.606;2023-01-31T06:02:22;93103.31;;;-1.32;96.29
36378;BME280;22402;42.746;23.606;2023-01-31T06:04:48;93112.66;;;-1.31;96.69
36378;BME280;22402;42.746;23.606;2023-01-31T06:07:13;93109.25;;;-1.31;96.68
36378;BME280;22402;42.746;23.606;2023-01-31T06:09:39;93107.53;;;-1.31;96.60
36378;BME280;22402;42.746;23.606;2023-01-31T06:12:04;93124.53;;;-1.30;96.63
36378;BME280;22402;42.746;23.606;2023-01-31T06:14:30;93121.88;;;-1.28;97.11
36378;BME280;22402;42.746;23.606;2023-01-31T06:16:55;93127.84;;;-1.28;96.82
36378;BME280;22402;42.746;23.606;2023-01-31T06:19:21;93130.41;;;-1.28;96.85
36378;BME280;22402;42.746;23.606;2023-01-31T06:21:46;93125.19;;;-1.26;97.10
36378;BME280;22402;42.746;23.606;2023-01-31T06:24:12;93130.22;;;-1.25;97.15
36378;BME280;22402;42.746;23.606;2023-01-31T06:26:37;93128.41;;;-1.23;97.28
36378;BME280;22402;42.746;23.606;2023-01-31T06:29:02;93128.41;;;-1.23;97.03
36378;BME280;22402;42.746;23.606;2023-01-31T06:31:28;93129.22;;;-1.22;97.32
36378;BME280;22402;42.746;23.606;2023-01-31T06:33:53;93133.34;;;-1.20;97.72
36378;BME280;22402;42.746;23.606;2023-01-31T06:36:18;93128.16;;;-1.18;97.96
36378;BME280;22402;42.746;23.606;2023-01-31T06:38:44;93130.63;;;-1.17;97.70
36378;BME280;22402;42.746;23.606;2023-01-31T06:41:12;93128.81;;;-1.15;97.92
36378;BME280;22402;42.746;23.606;2023-01-31T06:43:37;93127.00;;;-1.12;97.59
36378;BME280;22402;42.746;23.606;2023-01-31T06:46:03;93122.53;;;-1.09;97.71
36378;BME280;22402;42.746;23.606;2023-01-31T06:48:28;93125.75;;;-1.05;98.34
36378;BME280;22402;42.746;23.606;2023-01-31T06:50:53;93123.13;;;-1.04;98.17
36378;BME280;22402;42.746;23.606;2023-01-31T06:53:19;93128.91;;;-1.00;98.53
36378;BME280;22402;42.746;23.606;2023-01-31T06:55:44;93133.84;;;-0.97;98.08
36378;BME280;22402;42.746;23.606;2023-01-31T06:58:09;93134.44;;;-0.92;98.35
36378;BME280;22402;42.746;23.606;2023-01-31T07:00:35;93128.28;;;-0.89;98.30
36378;BME280;22402;42.746;23.606;2023-01-31T07:03:00;93123.75;;;-0.84;98.44
36378;BME280;22402;42.746;23.606;2023-01-31T07:05:26;93127.72;;;-0.79;98.95
36378;BME280;22402;42.746;23.606;2023-01-31T07:07:51;93126.53;;;-0.73;98.88
36378;BME280;22402;42.746;23.606;2023-01-31T07:10:17;93126.13;;;-0.65;98.88
36378;BME280;22402;42.746;23.606;2023-01-31T07:12:42;93121.56;;;-0.60;98.92
36378;BME280;22402;42.746;23.606;2023-01-31T07:15:09;93124.59;;;-0.54;98.17
36378;BME280;22402;42.746;23.606;2023-01-31T07:17:34;93125.09;;;-0.47;98.62
36378;BME280;22402;42.746;23.606;2023-01-31T07:19:59;93122.19;;;-0.41;98.61
36378;BME280;22402;42.746;23.606;2023-01-31T07:22:25;93125.28;;;-0.36;98.14
36378;BME280;22402;42.746;23.606;2023-01-31T07:24:53;93128.34;;;-0.29;98.70
36378;BME280;22402;42.746;23.606;2023-01-31T07:27:19;93128.06;;;-0.25;98.08
36378;BME280;22402;42.746;23.606;2023-01-31T07:29:44;93126.81;;;-0.17;98.30
36378;BME280;22402;42.746;23.606;2023-01-31T07:32:10;93128.19;;;-0.12;98.18
36378;BME280;22402;42.746;23.606;2023-01-31T07:34:35;93119.31;;;-0.06;98.23
36378;BME280;22402;42.746;23.606;2023-01-31T07:37:01;93125.81;;;-0.01;98.17
36378;BME280;22402;42.746;23.606;2023-01-31T07:39:27;93128.13;;;0.04;98.32
36378;BME280;22402;42.746;23.606;2023-01-31T07:41:53;93127.03;;;0.08;98.62
36378;BME280;22402;42.746;23.606;2023-01-31T07:44:18;93136.09;;;0.14;98.06
36378;BME280;22402;42.746;23.606;2023-01-31T07:46:43;93127.97;;;0.21;98.46
36378;BME280;22402;42.746;23.606;2023-01-31T07:49:09;93122.28;;;0.31;98.21
36378;BME280;22402;42.746;23.606;2023-01-31T07:51:34;93124.09;;;0.43;99.08
36378;BME280;22402;42.746;23.606;2023-01-31T07:54:00;93124.75;;;0.61;99.38
36378;BME280;22402;42.746;23.606;2023-01-31T07:56:26;93126.09;;;0.81;100.00
36378;BME280;22402;42.746;23.606;2023-01-31T07:58:51;93131.25;;;1.08;99.67
36378;BME280;22402;42.746;23.606;2023-01-31T08:01:21;93125.94;;;1.38;99.19
36378;BME280;22402;42.746;23.606;2023-01-31T08:03:47;93134.22;;;1.69;97.87
36378;BME280;22402;42.746;23.606;2023-01-31T08:06:13;93128.94;;;1.97;96.64
36378;BME280;22402;42.746;23.606;2023-01-31T08:08:40;93132.16;;;2.26;95.75
36378;BME280;22402;42.746;23.606;2023-01-31T08:11:06;93141.19;;;2.58;94.45
36378;BME280;22402;42.746;23.606;2023-01-31T08:13:32;93143.75;;;2.83;92.70
36378;BME280;22402;42.746;23.606;2023-01-31T08:15:58;93148.84;;;3.09;91.95
36378;BME280;22402;42.746;23.606;2023-01-31T08:18:23;93145.25;;;3.35;90.92
36378;BME280;22402;42.746;23.606;2023-01-31T08:20:49;93142.59;;;3.61;89.81
36378;BME280;22402;42.746;23.606;2023-01-31T08:23:14;93146.69;;;3.87;88.71
36378;BME280;22402;42.746;23.606;2023-01-31T08:25:39;93142.63;;;4.07;87.44
36378;BME280;22402;42.746;23.606;2023-01-31T08:28:05;93139.38;;;4.28;85.54
36378;BME280;22402;42.746;23.606;2023-01-31T08:30:30;93126.63;;;4.49;85.05
36378;BME280;22402;42.746;23.606;2023-01-31T08:32:56;93128.53;;;4.69;83.67
36378;BME280;22402;42.746;23.606;2023-01-31T08:35:21;93120.22;;;4.88;83.06
36378;BME280;22402;42.746;23.606;2023-01-31T08:40:40;93116.50;;;5.36;80.96
36378;BME280;22402;42.746;23.606;2023-01-31T08:43:05;93115.75;;;5.56;79.81
36378;BME280;22402;42.746;23.606;2023-01-31T08:45:31;93110.25;;;5.70;78.50
36378;BME280;22402;42.746;23.606;2023-01-31T08:47:58;93107.53;;;5.83;78.06
36378;BME280;22402;42.746;23.606;2023-01-31T08:50:26;93109.16;;;5.96;77.45
36378;BME280;22402;42.746;23.606;2023-01-31T08:52:57;93117.69;;;6.07;77.14
36378;BME280;22402;42.746;23.606;2023-01-31T08:55:23;93113.53;;;6.16;75.52
36378;BME280;22402;42.746;23.606;2023-01-31T08:57:50;93114.09;;;6.20;75.68
36378;BME280;22402;42.746;23.606;2023-01-31T09:00:16;93118.88;;;6.24;76.24
36378;BME280;22402;42.746;23.606;2023-01-31T09:02:42;93114.03;;;6.31;75.93
36378;BME280;22402;42.746;23.606;2023-01-31T09:05:07;93108.63;;;6.44;76.18
36378;BME280;22402;42.746;23.606;2023-01-31T09:07:36;93102.06;;;6.60;75.30
36378;BME280;22402;42.746;23.606;2023-01-31T09:10:01;93112.75;;;6.77;74.52
36378;BME280;22402;42.746;23.606;2023-01-31T09:12:26;93114.75;;;6.94;73.97
36378;BME280;22402;42.746;23.606;2023-01-31T09:14:52;93116.53;;;7.03;73.66
36378;BME280;22402;42.746;23.606;2023-01-31T09:17:18;93111.94;;;7.17;74.04
36378;BME280;22402;42.746;23.606;2023-01-31T09:19:43;93114.69;;;7.25;73.36
36378;BME280;22402;42.746;23.606;2023-01-31T09:22:08;93110.63;;;7.32;73.55
36378;BME280;22402;42.746;23.606;2023-01-31T09:24:35;93107.91;;;7.43;72.26
36378;BME280;22402;42.746;23.606;2023-01-31T09:27:00;93113.09;;;7.43;71.37
36378;BME280;22402;42.746;23.606;2023-01-31T09:29:25;93099.47;;;7.41;71.33
36378;BME280;22402;42.746;23.606;2023-01-31T09:31:51;93097.69;;;7.32;71.20
36378;BME280;22402;42.746;23.606;2023-01-31T09:34:19;93102.25;;;7.19;71.13
36378;BME280;22402;42.746;23.606;2023-01-31T09:36:45;93102.06;;;7.01;72.03
36378;BME280;22402;42.746;23.606;2023-01-31T09:39:11;93104.47;;;6.83;71.92
36378;BME280;22402;42.746;23.606;2023-01-31T09:42:14;93097.25;;;6.56;72.90
36378;BME280;22402;42.746;23.606;2023-01-31T09:44:44;93109.91;;;6.28;73.65
36378;BME280;22402;42.746;23.606;2023-01-31T09:47:35;93101.56;;;6.04;74.35
36378;BME280;22402;42.746;23.606;2023-01-31T09:50:05;93100.34;;;5.87;75.63
36378;BME280;22402;42.746;23.606;2023-01-31T09:52:31;93093.69;;;5.73;75.72
36378;BME280;22402;42.746;23.606;2023-01-31T09:54:57;93090.56;;;5.58;76.24
36378;BME280;22402;42.746;23.606;2023-01-31T10:05:29;93084.16;;;4.87;77.77
36378;BME280;22402;42.746;23.606;2023-01-31T10:13:33;93079.00;;;4.42;79.19
36378;BME280;22402;42.746;23.606;2023-01-31T10:16:25;93075.25;;;4.34;79.71
36378;BME280;22402;42.746;23.606;2023-01-31T10:18:52;93077.69;;;4.25;79.95
36378;BME280;22402;42.746;23.606;2023-01-31T10:21:21;93077.31;;;4.18;80.19
36378;BME280;22402;42.746;23.606;2023-01-31T10:24:03;93075.44;;;4.09;80.23
36378;BME280;22402;42.746;23.606;2023-01-31T10:26:32;93073.56;;;4.00;80.69
36378;BME280;22402;42.746;23.606;2023-01-31T10:29:29;93070.72;;;3.92;81.95
36378;BME280;22402;42.746;23.606;2023-01-31T10:32:02;93069.53;;;3.84;80.97
36378;BME280;22402;42.746;23.606;2023-01-31T10:34:33;93070.09;;;3.77;81.45
36378;BME280;22402;42.746;23.606;2023-01-31T10:37:04;93065.50;;;3.69;81.40
36378;BME280;22402;42.746;23.606;2023-01-31T10:39:47;93064.28;;;3.62;81.01
36378;BME280;22402;42.746;23.606;2023-01-31T10:45:14;93061.69;;;3.51;80.96
36378;BME280;22402;42.746;23.606;2023-01-31T10:47:49;93059.53;;;3.45;82.54
36378;BME280;22402;42.746;23.606;2023-01-31T10:50:53;93071.03;;;3.40;83.15
36378;BME280;22402;42.746;23.606;2023-01-31T10:56:36;93059.63;;;3.32;83.28
36378;BME280;22402;42.746;23.606;2023-01-31T10:59:06;93058.06;;;3.29;83.63
36378;BME280;22402;42.746;23.606;2023-01-31T11:01:35;93065.13;;;3.27;83.16
36378;BME280;22402;42.746;23.606;2023-01-31T11:04:19;93063.69;;;3.23;83.57
36378;BME280;22402;42.746;23.606;2023-01-31T11:06:46;93065.53;;;3.21;83.78
36378;BME280;22402;42.746;23.606;2023-01-31T11:09:12;93064.84;;;3.19;83.99
36378;BME280;22402;42.746;23.606;2023-01-31T11:12:01;93059.91;;;3.16;83.68
36378;BME280;22402;42.746;23.606;2023-01-31T11:14:27;93063.53;;;3.13;84.19
36378;BME280;22402;42.746;23.606;2023-01-31T11:16:58;93064.47;;;3.12;84.85
36378;BME280;22402;42.746;23.606;2023-01-31T11:21:57;93060.94;;;3.13;85.35
36378;BME280;22402;42.746;23.606;2023-01-31T11:24:25;93061.66;;;3.15;85.55
36378;BME280;22402;42.746;23.606;2023-01-31T11:27:11;93057.31;;;3.16;85.78
36378;BME280;22402;42.746;23.606;2023-01-31T11:29:44;93064.13;;;3.17;86.04
36378;BME280;22402;42.746;23.606;2023-01-31T11:32:31;93070.91;;;3.18;85.88
36378;BME280;22402;42.746;23.606;2023-01-31T11:35:30;93052.19;;;3.16;85.75
36378;BME280;22402;42.746;23.606;2023-01-31T11:37:59;93053.94;;;3.15;85.79
36378;BME280;22402;42.746;23.606;2023-01-31T11:40:34;93055.78;;;3.13;85.53
36378;BME280;22402;42.746;23.606;2023-01-31T11:43:00;93054.16;;;3.12;85.29
36378;BME280;22402;42.746;23.606;2023-01-31T11:45:29;93049.91;;;3.11;85.48
36378;BME280;22402;42.746;23.606;2023-01-31T11:47:58;93053.53;;;3.09;85.80
36378;BME280;22402;42.746;23.606;2023-01-31T11:50:35;93047.69;;;3.07;85.63
36378;BME280;22402;42.746;23.606;2023-01-31T11:53:03;93058.22;;;3.04;86.08
36378;BME280;22402;42.746;23.606;2023-01-31T11:55:38;93061.69;;;3.03;86.94
36378;BME280;22402;42.746;23.606;2023-01-31T11:58:15;93065.31;;;3.00;87.85
36378;BME280;22402;42.746;23.606;2023-01-31T12:00:54;93063.66;;;2.99;88.89
36378;BME280;22402;42.746;23.606;2023-01-31T12:03:21;93064.91;;;2.93;90.18
36378;BME280;22402;42.746;23.606;2023-01-31T12:05:50;93067.94;;;2.87;91.03
36378;BME280;22402;42.746;23.606;2023-01-31T12:10:50;93072.78;;;2.79;93.01
36378;BME280;22402;42.746;23.606;2023-01-31T12:13:18;93065.28;;;2.76;93.09
36378;BME280;22402;42.746;23.606;2023-01-31T12:15:55;93075.78;;;2.73;93.48
36378;BME280;22402;42.746;23.606;2023-01-31T12:18:49;93062.22;;;2.71;94.20
36378;BME280;22402;42.746;23.606;2023-01-31T12:26:46;93058.81;;;2.70;95.94
36378;BME280;22402;42.746;23.606;2023-01-31T12:38:14;93060.13;;;2.76;97.14
36378;BME280;22402;42.746;23.606;2023-01-31T12:51:42;93069.22;;;2.69;97.98
36378;BME280;22402;42.746;23.606;2023-01-31T12:57:00;93064.28;;;2.66;98.00
36378;BME280;22402;42.746;23.606;2023-01-31T12:59:34;93069.66;;;2.63;97.86
36378;BME280;22402;42.746;23.606;2023-01-31T13:02:10;93070.69;;;2.60;98.34
36378;BME280;22402;42.746;23.606;2023-01-31T13:04:48;93075.09;;;2.58;98.57
36378;BME280;22402;42.746;23.606;2023-01-31T13:07:36;93070.88;;;2.57;98.75
36378;BME280;22402;42.746;23.606;2023-01-31T13:10:16;93074.50;;;2.55;98.59
36378;BME280;22402;42.746;23.606;2023-01-31T13:12:44;93073.78;;;2.53;98.89
36378;BME280;22402;42.746;23.606;2023-01-31T13:15:46;93080.66;;;2.52;98.39
36378;BME280;22402;42.746;23.606;2023-01-31T13:18:13;93071.53;;;2.48;98.36
36378;BME280;22402;42.746;23.606;2023-01-31T13:20:47;93069.03;;;2.46;98.38
36378;BME280;22402;42.746;23.606;2023-01-31T13:23:48;93069.25;;;2.43;98.24
36378;BME280;22402;42.746;23.606;2023-01-31T13:26:24;93073.59;;;2.43;98.37
36378;BME280;22402;42.746;23.606;2023-01-31T13:29:05;93071.00;;;2.43;98.01
36378;BME280;22402;42.746;23.606;2023-01-31T13:31:46;93069.25;;;2.43;97.80
36378;BME280;22402;42.746;23.606;2023-01-31T13:34:18;93072.97;;;2.39;97.68
36378;BME280;22402;42.746;23.606;2023-01-31T13:36:59;93084.91;;;2.40;97.62
36378;BME280;22402;42.746;23.606;2023-01-31T13:39:27;93075.56;;;2.39;97.39
36378;BME280;22402;42.746;23.606;2023-01-31T13:41:54;93080.78;;;2.38;97.16
36378;BME280;22402;42.746;23.606;2023-01-31T13:44:19;93088.63;;;2.36;97.32
36378;BME280;22402;42.746;23.606;2023-01-31T13:47:04;93097.28;;;2.35;96.94
36378;BME280;22402;42.746;23.606;2023-01-31T13:49:42;93091.50;;;2.32;96.91
36378;BME280;22402;42.746;23.606;2023-01-31T13:54:47;93098.41;;;2.31;96.81
36378;BME280;22402;42.746;23.606;2023-01-31T13:57:52;93092.72;;;2.26;97.21
36378;BME280;22402;42.746;23.606;2023-01-31T14:03:18;93095.63;;;2.21;97.17
36378;BME280;22402;42.746;23.606;2023-01-31T14:13:43;93106.53;;;2.12;97.52
36378;BME280;22402;42.746;23.606;2023-01-31T14:18:55;93108.59;;;2.07;97.07
36378;BME280;22402;42.746;23.606;2023-01-31T14:23:56;93124.41;;;2.01;97.18
36378;BME280;22402;42.746;23.606;2023-01-31T14:26:53;93113.53;;;1.97;96.86
36378;BME280;22402;42.746;23.606;2023-01-31T14:29:23;93128.22;;;1.95;96.78
36378;BME280;22402;42.746;23.606;2023-01-31T14:31:50;93123.28;;;1.92;97.48
36378;BME280;22402;42.746;23.606;2023-01-31T14:34:22;93122.53;;;1.90;97.46
36378;BME280;22402;42.746;23.606;2023-01-31T14:37:05;93125.31;;;1.87;96.75
36378;BME280;22402;42.746;23.606;2023-01-31T14:48:25;93129.44;;;1.77;96.17
36378;BME280;22402;42.746;23.606;2023-01-31T14:59:40;93155.72;;;1.68;96.24
36378;BME280;22402;42.746;23.606;2023-01-31T15:05:08;93151.72;;;1.64;96.23
36378;BME280;22402;42.746;23.606;2023-01-31T15:07:33;93160.31;;;1.63;96.16